sensor_id;sensor_type;location;lat;lon;timestamp;P1;P2;P0
36453;PMS5003;22478;51.740;-1.314;2023-05-10T00:00:29;88;73;
36453;PMS5003;22478;51.740;-1.314;2023-05-10T00:02:57;82;70;
36453;PMS5003;22478;51.740;-1.314;2023-05-10T00:05:24;81;72;
36453;PMS5003;22478;51.740;-1.314;2023-05-10T00:07:51;79;72;
36453;PMS5003;22478;51.740;-1.314;2023-05-10T00:10:19;70;70;
36453;PMS5003;22478;51.740;-1.314;2023-05-10T00:12:46;86;75;
36453;PMS5003;22478;51.740;-1.314;2023-05-10T00:15:13;75;75;
36453;PMS5003;22478;51.740;-1.314;2023-05-10T00:17:41;82;71;
36453;PMS5003;22478;51.740;-1.314;2023-05-10T00:20:09;83;74;
36453;PMS5003;22478;51.740;-1.314;2023-05-10T00:22:36;72;72;
36453;PMS5003;22478;51.740;-1.314;2023-05-10T00:25:05;86;74;
36453;PMS5003;22478;51.740;-1.314;2023-05-10T00:27:33;82;75;
36453;PMS5003;22478;51.740;-1.314;2023-05-10T00:30:01;88;75;
36453;PMS5003;22478;51.740;-1.314;2023-05-10T00:32:28;97;83;
36453;PMS5003;22478;51.740;-1.314;2023-05-10T00:34:56;96;79;
36453;PMS5003;22478;51.740;-1.314;2023-05-10T00:37:23;81;80;
36453;PMS5003;22478;51.740;-1.314;2023-05-10T00:39:50;93;87;
36453;PMS5003;22478;51.740;-1.314;2023-05-10T00:42:18;99;88;
36453;PMS5003;22478;51.740;-1.314;2023-05-10T00:44:46;88;82;
36453;PMS5003;22478;51.740;-1.314;2023-05-10T00:47:13;95;81;
36453;PMS5003;22478;51.740;-1.314;2023-05-10T00:49:40;93;84;
36453;PMS5003;22478;51.740;-1.314;2023-05-10T00:52:08;91;77;
36453;PMS5003;22478;51.740;-1.314;2023-05-10T00:54:35;97;78;
36453;PMS5003;22478;51.740;-1.314;2023-05-10T00:57:03;93;84;
36453;PMS5003;22478;51.740;-1.314;2023-05-10T00:59:31;90;74;
36453;PMS5003;22478;51.740;-1.314;2023-05-10T01:01:59;83;77;
36453;PMS5003;22478;51.740;-1.314;2023-05-10T01:04:26;102;89;
36453;PMS5003;22478;51.740;-1.314;2023-05-10T01:06:54;79;73;
36453;PMS5003;22478;51.740;-1.314;2023-05-10T01:09:21;97;85;
36453;PMS5003;22478;51.740;-1.314;2023-05-10T01:11:49;96;84;
36453;PMS5003;22478;51.740;-1.314;2023-05-10T01:14:17;95;82;
36453;PMS5003;22478;51.740;-1.314;2023-05-10T01:16:45;81;76;
36453;PMS5003;22478;51.740;-1.314;2023-05-10T01:19:17;93;83;
36453;PMS5003;22478;51.740;-1.314;2023-05-10T01:21:49;83;81;
36453;PMS5003;22478;51.740;-1.314;2023-05-10T01:24:33;90;79;
36453;PMS5003;22478;51.740;-1.314;2023-05-10T01:27:18;92;78;
36453;PMS5003;22478;51.740;-1.314;2023-05-10T01:30:01;105;88;
36453;PMS5003;22478;51.740;-1.314;2023-05-10T01:32:39;99;88;
36453;PMS5003;22478;51.740;-1.314;2023-05-10T01:35:14;89;78;
36453;PMS5003;22478;51.740;-1.314;2023-05-10T01:37:46;90;79;
36453;PMS5003;22478;51.740;-1.314;2023-05-10T01:40:23;101;86;
36453;PMS5003;22478;51.740;-1.314;2023-05-10T01:42:59;102;87;
36453;PMS5003;22478;51.740;-1.314;2023-05-10T01:45:30;103;87;
36453;PMS5003;22478;51.740;-1.314;2023-05-10T01:48:05;98;98;
36453;PMS5003;22478;51.740;-1.314;2023-05-10T01:50:35;105;97;
36453;PMS5003;22478;51.740;-1.314;2023-05-10T01:53:06;104;92;
36453;PMS5003;22478;51.740;-1.314;2023-05-10T01:55:38;111;100;
36453;PMS5003;22478;51.740;-1.314;2023-05-10T01:58:09;107;95;
36453;PMS5003;22478;51.740;-1.314;2023-05-10T02:00:43;101;91;
36453;PMS5003;22478;51.740;-1.314;2023-05-10T02:03:11;104;91;
36453;PMS5003;22478;51.740;-1.314;2023-05-10T02:05:40;107;99;
36453;PMS5003;22478;51.740;-1.314;2023-05-10T02:08:09;100;99;
36453;PMS5003;22478;51.740;-1.314;2023-05-10T02:10:38;108;98;
36453;PMS5003;22478;51.740;-1.314;2023-05-10T02:13:07;102;95;
36453;PMS5003;22478;51.740;-1.314;2023-05-10T02:15:36;107;98;
36453;PMS5003;22478;51.740;-1.314;2023-05-10T02:18:07;109;100;
36453;PMS5003;22478;51.740;-1.314;2023-05-10T02:20:35;113;106;
36453;PMS5003;22478;51.740;-1.314;2023-05-10T02:23:04;112;109;
36453;PMS5003;22478;51.740;-1.314;2023-05-10T02:25:34;116;105;
36453;PMS5003;22478;51.740;-1.314;2023-05-10T02:28:03;114;105;
36453;PMS5003;22478;51.740;-1.314;2023-05-10T02:30:33;115;111;
36453;PMS5003;22478;51.740;-1.314;2023-05-10T02:33:02;113;99;
36453;PMS5003;22478;51.740;-1.314;2023-05-10T02:35:32;117;105;
36453;PMS5003;22478;51.740;-1.314;2023-05-10T02:38:00;127;111;
36453;PMS5003;22478;51.740;-1.314;2023-05-10T02:40:29;123;111;
36453;PMS5003;22478;51.740;-1.314;2023-05-10T02:42:59;112;105;
36453;PMS5003;22478;51.740;-1.314;2023-05-10T02:45:30;118;106;
36453;PMS5003;22478;51.740;-1.314;2023-05-10T02:47:58;109;100;
36453;PMS5003;22478;51.740;-1.314;2023-05-10T02:50:27;115;109;
36453;PMS5003;22478;51.740;-1.314;2023-05-10T02:52:59;119;108;
36453;PMS5003;22478;51.740;-1.314;2023-05-10T02:55:30;116;106;
36453;PMS5003;22478;51.740;-1.314;2023-05-10T02:58:00;106;94;
36453;PMS5003;22478;51.740;-1.314;2023-05-10T03:00:28;98;90;
36453;PMS5003;22478;51.740;-1.314;2023-05-10T03:02:56;123;110;
36453;PMS5003;22478;51.740;-1.314;2023-05-10T03:05:24;103;97;
36453;PMS5003;22478;51.740;-1.314;2023-05-10T03:07:51;111;96;
36453;PMS5003;22478;51.740;-1.314;2023-05-10T03:10:20;110;99;
36453;PMS5003;22478;51.740;-1.314;2023-05-10T03:12:57;110;102;
36453;PMS5003;22478;51.740;-1.314;2023-05-10T03:15:37;109;102;
36453;PMS5003;22478;51.740;-1.314;2023-05-10T03:18:15;111;104;
36453;PMS5003;22478;51.740;-1.314;2023-05-10T03:20:47;102;99;
36453;PMS5003;22478;51.740;-1.314;2023-05-10T03:23:20;99;97;
36453;PMS5003;22478;51.740;-1.314;2023-05-10T03:25:53;105;95;
36453;PMS5003;22478;51.740;-1.314;2023-05-10T03:28:21;113;101;
36453;PMS5003;22478;51.740;-1.314;2023-05-10T03:30:52;108;98;
36453;PMS5003;22478;51.740;-1.314;2023-05-10T03:33:19;110;95;
36453;PMS5003;22478;51.740;-1.314;2023-05-10T03:35:47;102;101;
36453;PMS5003;22478;51.740;-1.314;2023-05-10T03:38:14;111;94;
36453;PMS5003;22478;51.740;-1.314;2023-05-10T03:40:41;107;95;
36453;PMS5003;22478;51.740;-1.314;2023-05-10T03:43:09;102;97;
36453;PMS5003;22478;51.740;-1.314;2023-05-10T03:45:36;112;95;
36453;PMS5003;22478;51.740;-1.314;2023-05-10T03:48:04;109;94;
36453;PMS5003;22478;51.740;-1.314;2023-05-10T03:50:31;110;97;
36453;PMS5003;22478;51.740;-1.314;2023-05-10T03:52:59;117;98;
36453;PMS5003;22478;51.740;-1.314;2023-05-10T03:55:26;107;94;
36453;PMS5003;22478;51.740;-1.314;2023-05-10T03:57:53;119;103;
36453;PMS5003;22478;51.740;-1.314;2023-05-10T04:00:21;115;97;
36453;PMS5003;22478;51.740;-1.314;2023-05-10T04:02:48;116;98;
36453;PMS5003;22478;51.740;-1.314;2023-05-10T04:05:16;105;94;
36453;PMS5003;22478;51.740;-1.314;2023-05-10T04:07:44;102;93;
36453;PMS5003;22478;51.740;-1.314;2023-05-10T04:10:11;108;97;
36453;PMS5003;22478;51.740;-1.314;2023-05-10T04:12:38;103;97;
36453;PMS5003;22478;51.740;-1.314;2023-05-10T04:15:06;108;93;
36453;PMS5003;22478;51.740;-1.314;2023-05-10T04:17:34;104;95;
36453;PMS5003;22478;51.740;-1.314;2023-05-10T04:20:01;114;98;
36453;PMS5003;22478;51.740;-1.314;2023-05-10T04:22:29;107;96;
36453;PMS5003;22478;51.740;-1.314;2023-05-10T04:24:56;110;96;
36453;PMS5003;22478;51.740;-1.314;2023-05-10T04:27:23;118;107;
36453;PMS5003;22478;51.740;-1.314;2023-05-10T04:29:51;113;97;
36453;PMS5003;22478;51.740;-1.314;2023-05-10T04:32:18;114;101;
36453;PMS5003;22478;51.740;-1.314;2023-05-10T04:34:46;118;103;
36453;PMS5003;22478;51.740;-1.314;2023-05-10T04:37:14;109;95;
36453;PMS5003;22478;51.740;-1.314;2023-05-10T04:39:41;102;95;
36453;PMS5003;22478;51.740;-1.314;2023-05-10T04:42:08;119;100;
36453;PMS5003;22478;51.740;-1.314;2023-05-10T04:44:36;114;94;
36453;PMS5003;22478;51.740;-1.314;2023-05-10T04:47:03;109;107;
36453;PMS5003;22478;51.740;-1.314;2023-05-10T04:49:30;98;87;
36453;PMS5003;22478;51.740;-1.314;2023-05-10T04:51:57;111;98;
36453;PMS5003;22478;51.740;-1.314;2023-05-10T04:54:25;110;93;
36453;PMS5003;22478;51.740;-1.314;2023-05-10T04:56:52;114;97;
36453;PMS5003;22478;51.740;-1.314;2023-05-10T04:59:20;98;90;
36453;PMS5003;22478;51.740;-1.314;2023-05-10T05:01:47;105;91;
36453;PMS5003;22478;51.740;-1.314;2023-05-10T05:04:14;93;92;
36453;PMS5003;22478;51.740;-1.314;2023-05-10T05:06:42;97;85;
36453;PMS5003;22478;51.740;-1.314;2023-05-10T05:09:09;93;90;
36453;PMS5003;22478;51.740;-1.314;2023-05-10T05:11:36;112;94;
36453;PMS5003;22478;51.740;-1.314;2023-05-10T05:14:04;108;91;
36453;PMS5003;22478;51.740;-1.314;2023-05-10T05:16:31;110;92;
36453;PMS5003;22478;51.740;-1.314;2023-05-10T05:18:59;106;97;
36453;PMS5003;22478;51.740;-1.314;2023-05-10T05:21:26;112;93;
36453;PMS5003;22478;51.740;-1.314;2023-05-10T05:23:53;92;79;
36453;PMS5003;22478;51.740;-1.314;2023-05-10T05:26:21;98;81;
36453;PMS5003;22478;51.740;-1.314;2023-05-10T05:28:48;93;89;
36453;PMS5003;22478;51.740;-1.314;2023-05-10T05:31:16;92;84;
36453;PMS5003;22478;51.740;-1.314;2023-05-10T05:33:43;92;79;
36453;PMS5003;22478;51.740;-1.314;2023-05-10T05:36:11;92;85;
36453;PMS5003;22478;51.740;-1.314;2023-05-10T05:38:38;106;85;
36453;PMS5003;22478;51.740;-1.314;2023-05-10T05:41:05;104;89;
36453;PMS5003;22478;51.740;-1.314;2023-05-10T05:43:33;106;89;
36453;PMS5003;22478;51.740;-1.314;2023-05-10T05:46:00;101;88;
36453;PMS5003;22478;51.740;-1.314;2023-05-10T05:48:29;113;97;
36453;PMS5003;22478;51.740;-1.314;2023-05-10T05:50:57;108;92;
36453;PMS5003;22478;51.740;-1.314;2023-05-10T05:53:24;101;89;
36453;PMS5003;22478;51.740;-1.314;2023-05-10T05:55:51;121;99;
36453;PMS5003;22478;51.740;-1.314;2023-05-10T05:58:19;114;95;
36453;PMS5003;22478;51.740;-1.314;2023-05-10T06:00:46;111;95;
36453;PMS5003;22478;51.740;-1.314;2023-05-10T06:03:18;127;108;
36453;PMS5003;22478;51.740;-1.314;2023-05-10T06:05:45;113;100;
36453;PMS5003;22478;51.740;-1.314;2023-05-10T06:08:13;104;87;
36453;PMS5003;22478;51.740;-1.314;2023-05-10T06:10:41;110;93;
36453;PMS5003;22478;51.740;-1.314;2023-05-10T06:13:08;115;106;
36453;PMS5003;22478;51.740;-1.314;2023-05-10T06:15:36;106;90;
36453;PMS5003;22478;51.740;-1.314;2023-05-10T06:18:03;120;105;
36453;PMS5003;22478;51.740;-1.314;2023-05-10T06:20:36;106;95;
36453;PMS5003;22478;51.740;-1.314;2023-05-10T06:23:03;120;101;
36453;PMS5003;22478;51.740;-1.314;2023-05-10T06:25:31;110;97;
36453;PMS5003;22478;51.740;-1.314;2023-05-10T06:27:58;89;82;
36453;PMS5003;22478;51.740;-1.314;2023-05-10T06:30:25;106;89;
36453;PMS5003;22478;51.740;-1.314;2023-05-10T06:32:52;103;89;
36453;PMS5003;22478;51.740;-1.314;2023-05-10T06:35:20;100;91;
36453;PMS5003;22478;51.740;-1.314;2023-05-10T06:37:48;115;98;
36453;PMS5003;22478;51.740;-1.314;2023-05-10T06:40:15;100;97;
36453;PMS5003;22478;51.740;-1.314;2023-05-10T06:42:43;106;97;
36453;PMS5003;22478;51.740;-1.314;2023-05-10T06:45:11;105;96;
36453;PMS5003;22478;51.740;-1.314;2023-05-10T06:47:38;107;91;
36453;PMS5003;22478;51.740;-1.314;2023-05-10T06:50:05;111;95;
36453;PMS5003;22478;51.740;-1.314;2023-05-10T06:52:33;122;102;
36453;PMS5003;22478;51.740;-1.314;2023-05-10T06:55:06;109;93;
36453;PMS5003;22478;51.740;-1.314;2023-05-10T06:57:34;123;100;
36453;PMS5003;22478;51.740;-1.314;2023-05-10T07:00:02;114;98;
36453;PMS5003;22478;51.740;-1.314;2023-05-10T07:02:31;119;102;
36453;PMS5003;22478;51.740;-1.314;2023-05-10T07:04:58;118;99;
36453;PMS5003;22478;51.740;-1.314;2023-05-10T07:07:26;133;111;
36453;PMS5003;22478;51.740;-1.314;2023-05-10T07:09:53;108;93;
36453;PMS5003;22478;51.740;-1.314;2023-05-10T07:12:20;113;98;
36453;PMS5003;22478;51.740;-1.314;2023-05-10T07:14:48;117;93;
36453;PMS5003;22478;51.740;-1.314;2023-05-10T07:17:15;111;97;
36453;PMS5003;22478;51.740;-1.314;2023-05-10T07:19:43;120;102;
36453;PMS5003;22478;51.740;-1.314;2023-05-10T07:22:09;93;91;
36453;PMS5003;22478;51.740;-1.314;2023-05-10T07:24:37;108;99;
36453;PMS5003;22478;51.740;-1.314;2023-05-10T07:27:09;115;95;
36453;PMS5003;22478;51.740;-1.314;2023-05-10T07:29:37;110;95;
36453;PMS5003;22478;51.740;-1.314;2023-05-10T07:32:05;116;104;
36453;PMS5003;22478;51.740;-1.314;2023-05-10T07:34:37;116;105;
36453;PMS5003;22478;51.740;-1.314;2023-05-10T07:37:04;119;105;
36453;PMS5003;22478;51.740;-1.314;2023-05-10T07:39:32;124;107;
36453;PMS5003;22478;51.740;-1.314;2023-05-10T07:41:59;122;110;
36453;PMS5003;22478;51.740;-1.314;2023-05-10T07:44:32;106;100;
36453;PMS5003;22478;51.740;-1.314;2023-05-10T07:46:59;118;107;
36453;PMS5003;22478;51.740;-1.314;2023-05-10T07:49:32;120;108;
36453;PMS5003;22478;51.740;-1.314;2023-05-10T07:52:04;115;107;
36453;PMS5003;22478;51.740;-1.314;2023-05-10T07:54:32;113;107;
36453;PMS5003;22478;51.740;-1.314;2023-05-10T07:56:59;111;109;
36453;PMS5003;22478;51.740;-1.314;2023-05-10T07:59:27;112;104;
36453;PMS5003;22478;51.740;-1.314;2023-05-10T08:01:54;109;101;
36453;PMS5003;22478;51.740;-1.314;2023-05-10T08:04:21;105;102;
36453;PMS5003;22478;51.740;-1.314;2023-05-10T08:06:53;87;83;
36453;PMS5003;22478;51.740;-1.314;2023-05-10T08:09:20;79;77;
36453;PMS5003;22478;51.740;-1.314;2023-05-10T08:11:53;78;78;
36453;PMS5003;22478;51.740;-1.314;2023-05-10T08:14:20;63;61;
36453;PMS5003;22478;51.740;-1.314;2023-05-10T08:16:48;29;25;
36453;PMS5003;22478;51.740;-1.314;2023-05-10T08:19:15;25;24;
36453;PMS5003;22478;51.740;-1.314;2023-05-10T08:21:42;25;24;
36453;PMS5003;22478;51.740;-1.314;2023-05-10T08:24:09;16;13;
36453;PMS5003;22478;51.740;-1.314;2023-05-10T08:26:36;16;13;
36453;PMS5003;22478;51.740;-1.314;2023-05-10T08:29:08;15;14;
36453;PMS5003;22478;51.740;-1.314;2023-05-10T08:31:35;13;9;
36453;PMS5003;22478;51.740;-1.314;2023-05-10T08:34:03;13;11;
36453;PMS5003;22478;51.740;-1.314;2023-05-10T08:36:30;8;6;
36453;PMS5003;22478;51.740;-1.314;2023-05-10T08:38:57;9;8;
36453;PMS5003;22478;51.740;-1.314;2023-05-10T08:41:24;6;6;
36453;PMS5003;22478;51.740;-1.314;2023-05-10T08:43:52;7;5;
36453;PMS5003;22478;51.740;-1.314;2023-05-10T08:46:20;8;8;
36453;PMS5003;22478;51.740;-1.314;2023-05-10T08:48:49;11;7;
36453;PMS5003;22478;51.740;-1.314;2023-05-10T08:51:18;9;6;
36453;PMS5003;22478;51.740;-1.314;2023-05-10T08:53:46;6;6;
36453;PMS5003;22478;51.740;-1.314;2023-05-10T08:56:14;10;5;
36453;PMS5003;22478;51.740;-1.314;2023-05-10T08:58:42;7;6;
36453;PMS5003;22478;51.740;-1.314;2023-05-10T09:01:10;4;4;
36453;PMS5003;22478;51.740;-1.314;2023-05-10T09:03:38;6;4;
36453;PMS5003;22478;51.740;-1.314;2023-05-10T09:06:06;6;5;
36453;PMS5003;22478;51.740;-1.314;2023-05-10T09:08:33;12;8;
36453;PMS5003;22478;51.740;-1.314;2023-05-10T09:11:03;8;7;
36453;PMS5003;22478;51.740;-1.314;2023-05-10T09:13:30;6;6;
36453;PMS5003;22478;51.740;-1.314;2023-05-10T09:15:58;8;5;
36453;PMS5003;22478;51.740;-1.314;2023-05-10T09:18:26;7;7;
36453;PMS5003;22478;51.740;-1.314;2023-05-10T09:20:54;13;9;
36453;PMS5003;22478;51.740;-1.314;2023-05-10T09:23:21;9;7;
36453;PMS5003;22478;51.740;-1.314;2023-05-10T09:25:48;7;7;
36453;PMS5003;22478;51.740;-1.314;2023-05-10T09:28:31;8;8;
36453;PMS5003;22478;51.740;-1.314;2023-05-10T09:30:58;8;8;
36453;PMS5003;22478;51.740;-1.314;2023-05-10T09:33:26;11;7;
36453;PMS5003;22478;51.740;-1.314;2023-05-10T09:35:53;4;4;
36453;PMS5003;22478;51.740;-1.314;2023-05-10T09:38:21;6;5;
36453;PMS5003;22478;51.740;-1.314;2023-05-10T09:40:51;7;6;
36453;PMS5003;22478;51.740;-1.314;2023-05-10T09:43:19;6;5;
36453;PMS5003;22478;51.740;-1.314;2023-05-10T09:45:47;3;3;
36453;PMS5003;22478;51.740;-1.314;2023-05-10T09:48:15;4;4;
36453;PMS5003;22478;51.740;-1.314;2023-05-10T09:50:43;5;3;
36453;PMS5003;22478;51.740;-1.314;2023-05-10T09:53:10;3;3;
36453;PMS5003;22478;51.740;-1.314;2023-05-10T09:55:46;6;4;
36453;PMS5003;22478;51.740;-1.314;2023-05-10T09:58:13;3;3;
36453;PMS5003;22478;51.740;-1.314;2023-05-10T10:00:42;5;5;
36453;PMS5003;22478;51.740;-1.314;2023-05-10T10:03:12;5;3;
36453;PMS5003;22478;51.740;-1.314;2023-05-10T10:05:41;2;2;
36453;PMS5003;22478;51.740;-1.314;2023-05-10T10:08:10;3;2;
36453;PMS5003;22478;51.740;-1.314;2023-05-10T10:10:43;6;3;
36453;PMS5003;22478;51.740;-1.314;2023-05-10T10:13:10;6;4;
36453;PMS5003;22478;51.740;-1.314;2023-05-10T10:15:38;2;2;
36453;PMS5003;22478;51.740;-1.314;2023-05-10T10:18:05;3;3;
36453;PMS5003;22478;51.740;-1.314;2023-05-10T10:20:34;1;1;
36453;PMS5003;22478;51.740;-1.314;2023-05-10T10:23:04;1;1;
36453;PMS5003;22478;51.740;-1.314;2023-05-10T10:25:32;1;1;
36453;PMS5003;22478;51.740;-1.314;2023-05-10T10:28:02;1;1;
36453;PMS5003;22478;51.740;-1.314;2023-05-10T10:30:41;2;2;
36453;PMS5003;22478;51.740;-1.314;2023-05-10T10:33:13;3;3;
36453;PMS5003;22478;51.740;-1.314;2023-05-10T10:35:58;2;2;
36453;PMS5003;22478;51.740;-1.314;2023-05-10T10:38:35;1;1;
36453;PMS5003;22478;51.740;-1.314;2023-05-10T10:41:08;1;1;
36453;PMS5003;22478;51.740;-1.314;2023-05-10T10:43:36;1;1;
36453;PMS5003;22478;51.740;-1.314;2023-05-10T10:46:12;3;1;
36453;PMS5003;22478;51.740;-1.314;2023-05-10T10:48:40;1;1;
36453;PMS5003;22478;51.740;-1.314;2023-05-10T10:51:13;0;0;
36453;PMS5003;22478;51.740;-1.314;2023-05-10T10:53:41;1;1;
36453;PMS5003;22478;51.740;-1.314;2023-05-10T10:56:10;1;1;
36453;PMS5003;22478;51.740;-1.314;2023-05-10T10:58:39;2;1;
36453;PMS5003;22478;51.740;-1.314;2023-05-10T11:01:14;0;0;
36453;PMS5003;22478;51.740;-1.314;2023-05-10T11:03:54;1;1;
36453;PMS5003;22478;51.740;-1.314;2023-05-10T11:06:44;1;1;
36453;PMS5003;22478;51.740;-1.314;2023-05-10T11:09:11;3;1;
36453;PMS5003;22478;51.740;-1.314;2023-05-10T11:11:48;3;2;
36453;PMS5003;22478;51.740;-1.314;2023-05-10T11:14:20;1;1;
36453;PMS5003;22478;51.740;-1.314;2023-05-10T11:16:47;1;1;
36453;PMS5003;22478;51.740;-1.314;2023-05-10T11:19:15;3;1;
36453;PMS5003;22478;51.740;-1.314;2023-05-10T11:21:45;2;2;
36453;PMS5003;22478;51.740;-1.314;2023-05-10T11:24:19;1;1;
36453;PMS5003;22478;51.740;-1.314;2023-05-10T11:26:49;1;1;
36453;PMS5003;22478;51.740;-1.314;2023-05-10T11:29:17;1;1;
36453;PMS5003;22478;51.740;-1.314;2023-05-10T11:31:45;5;2;
36453;PMS5003;22478;51.740;-1.314;2023-05-10T11:34:22;2;2;
36453;PMS5003;22478;51.740;-1.314;2023-05-10T11:36:51;2;1;
36453;PMS5003;22478;51.740;-1.314;2023-05-10T11:39:19;2;2;
36453;PMS5003;22478;51.740;-1.314;2023-05-10T11:41:47;1;1;
36453;PMS5003;22478;51.740;-1.314;2023-05-10T11:44:15;2;1;
36453;PMS5003;22478;51.740;-1.314;2023-05-10T11:46:43;2;2;
36453;PMS5003;22478;51.740;-1.314;2023-05-10T11:49:10;2;1;
36453;PMS5003;22478;51.740;-1.314;2023-05-10T11:51:37;2;0;
36453;PMS5003;22478;51.740;-1.314;2023-05-10T11:54:05;3;1;
36453;PMS5003;22478;51.740;-1.314;2023-05-10T11:56:39;0;0;
36453;PMS5003;22478;51.740;-1.314;2023-05-10T11:59:07;0;0;
36453;PMS5003;22478;51.740;-1.314;2023-05-10T12:01:35;2;2;
36453;PMS5003;22478;51.740;-1.314;2023-05-10T12:04:03;1;1;
36453;PMS5003;22478;51.740;-1.314;2023-05-10T12:06:31;2;2;
36453;PMS5003;22478;51.740;-1.314;2023-05-10T12:09:05;1;1;
36453;PMS5003;22478;51.740;-1.314;2023-05-10T12:11:39;1;1;
36453;PMS5003;22478;51.740;-1.314;2023-05-10T12:14:07;2;2;
36453;PMS5003;22478;51.740;-1.314;2023-05-10T12:16:35;2;2;
36453;PMS5003;22478;51.740;-1.314;2023-05-10T12:19:02;1;1;
36453;PMS5003;22478;51.740;-1.314;2023-05-10T12:21:29;1;1;
36453;PMS5003;22478;51.740;-1.314;2023-05-10T12:23:59;3;3;
36453;PMS5003;22478;51.740;-1.314;2023-05-10T12:26:27;2;2;
36453;PMS5003;22478;51.740;-1.314;2023-05-10T12:28:55;2;1;
36453;PMS5003;22478;51.740;-1.314;2023-05-10T12:31:48;0;0;
36453;PMS5003;22478;51.740;-1.314;2023-05-10T12:34:22;2;1;
36453;PMS5003;22478;51.740;-1.314;2023-05-10T12:36:50;1;1;
36453;PMS5003;22478;51.740;-1.314;2023-05-10T12:39:19;1;1;
36453;PMS5003;22478;51.740;-1.314;2023-05-10T12:41:46;2;2;
36453;PMS5003;22478;51.740;-1.314;2023-05-10T12:44:13;2;2;
36453;PMS5003;22478;51.740;-1.314;2023-05-10T12:46:41;2;1;
36453;PMS5003;22478;51.740;-1.314;2023-05-10T12:49:09;1;1;
36453;PMS5003;22478;51.740;-1.314;2023-05-10T12:51:35;2;1;
36453;PMS5003;22478;51.740;-1.314;2023-05-10T12:54:02;3;2;
36453;PMS5003;22478;51.740;-1.314;2023-05-10T12:56:30;3;3;
36453;PMS5003;22478;51.740;-1.314;2023-05-10T12:58:57;2;2;
36453;PMS5003;22478;51.740;-1.314;2023-05-10T13:01:24;1;1;
36453;PMS5003;22478;51.740;-1.314;2023-05-10T13:03:51;2;2;
36453;PMS5003;22478;51.740;-1.314;2023-05-10T13:06:17;3;1;
36453;PMS5003;22478;51.740;-1.314;2023-05-10T13:08:45;1;1;
36453;PMS5003;22478;51.740;-1.314;2023-05-10T13:11:12;4;3;
36453;PMS5003;22478;51.740;-1.314;2023-05-10T13:13:39;2;2;
36453;PMS5003;22478;51.740;-1.314;2023-05-10T13:16:06;3;3;
36453;PMS5003;22478;51.740;-1.314;2023-05-10T13:18:33;2;2;
36453;PMS5003;22478;51.740;-1.314;2023-05-10T13:21:01;2;2;
36453;PMS5003;22478;51.740;-1.314;2023-05-10T13:23:28;3;3;
36453;PMS5003;22478;51.740;-1.314;2023-05-10T13:25:55;4;2;
36453;PMS5003;22478;51.740;-1.314;2023-05-10T13:28:22;8;6;
36453;PMS5003;22478;51.740;-1.314;2023-05-10T13:30:49;4;4;
36453;PMS5003;22478;51.740;-1.314;2023-05-10T13:33:16;5;5;
36453;PMS5003;22478;51.740;-1.314;2023-05-10T13:35:43;4;4;
36453;PMS5003;22478;51.740;-1.314;2023-05-10T13:38:11;6;3;
36453;PMS5003;22478;51.740;-1.314;2023-05-10T13:40:38;7;6;
36453;PMS5003;22478;51.740;-1.314;2023-05-10T13:43:05;1;1;
36453;PMS5003;22478;51.740;-1.314;2023-05-10T13:45:32;2;2;
36453;PMS5003;22478;51.740;-1.314;2023-05-10T13:47:59;3;3;
36453;PMS5003;22478;51.740;-1.314;2023-05-10T13:50:26;2;2;
36453;PMS5003;22478;51.740;-1.314;2023-05-10T13:52:53;2;2;
36453;PMS5003;22478;51.740;-1.314;2023-05-10T13:55:20;3;3;
36453;PMS5003;22478;51.740;-1.314;2023-05-10T13:57:48;1;1;
36453;PMS5003;22478;51.740;-1.314;2023-05-10T14:00:15;5;1;
36453;PMS5003;22478;51.740;-1.314;2023-05-10T14:02:43;1;1;
36453;PMS5003;22478;51.740;-1.314;2023-05-10T14:05:10;1;1;
36453;PMS5003;22478;51.740;-1.314;2023-05-10T14:07:37;5;2;
36453;PMS5003;22478;51.740;-1.314;2023-05-10T14:10:04;5;1;
36453;PMS5003;22478;51.740;-1.314;2023-05-10T14:12:31;4;3;
36453;PMS5003;22478;51.740;-1.314;2023-05-10T14:14:59;2;2;
36453;PMS5003;22478;51.740;-1.314;2023-05-10T14:17:26;3;2;
36453;PMS5003;22478;51.740;-1.314;2023-05-10T14:19:53;3;3;
36453;PMS5003;22478;51.740;-1.314;2023-05-10T14:22:20;1;0;
36453;PMS5003;22478;51.740;-1.314;2023-05-10T14:24:47;3;3;
36453;PMS5003;22478;51.740;-1.314;2023-05-10T14:27:14;4;3;
36453;PMS5003;22478;51.740;-1.314;2023-05-10T14:29:42;4;4;
36453;PMS5003;22478;51.740;-1.314;2023-05-10T14:32:09;2;2;
36453;PMS5003;22478;51.740;-1.314;2023-05-10T14:34:36;5;3;
36453;PMS5003;22478;51.740;-1.314;2023-05-10T14:37:03;2;2;
36453;PMS5003;22478;51.740;-1.314;2023-05-10T14:39:30;4;1;
36453;PMS5003;22478;51.740;-1.314;2023-05-10T14:41:57;3;3;
36453;PMS5003;22478;51.740;-1.314;2023-05-10T14:44:24;4;4;
36453;PMS5003;22478;51.740;-1.314;2023-05-10T14:46:50;6;5;
36453;PMS5003;22478;51.740;-1.314;2023-05-10T14:49:18;4;4;
36453;PMS5003;22478;51.740;-1.314;2023-05-10T14:51:45;3;3;
36453;PMS5003;22478;51.740;-1.314;2023-05-10T14:54:12;6;3;
36453;PMS5003;22478;51.740;-1.314;2023-05-10T14:56:39;9;6;
36453;PMS5003;22478;51.740;-1.314;2023-05-10T14:59:06;9;5;
36453;PMS5003;22478;51.740;-1.314;2023-05-10T15:01:33;3;3;
36453;PMS5003;22478;51.740;-1.314;2023-05-10T15:04:00;5;5;
36453;PMS5003;22478;51.740;-1.314;2023-05-10T15:06:30;7;7;
36453;PMS5003;22478;51.740;-1.314;2023-05-10T15:08:59;6;6;
36453;PMS5003;22478;51.740;-1.314;2023-05-10T15:11:27;8;7;
36453;PMS5003;22478;51.740;-1.314;2023-05-10T15:13:54;12;12;
36453;PMS5003;22478;51.740;-1.314;2023-05-10T15:16:21;5;5;
36453;PMS5003;22478;51.740;-1.314;2023-05-10T15:18:48;11;11;
36453;PMS5003;22478;51.740;-1.314;2023-05-10T15:21:15;10;10;
36453;PMS5003;22478;51.740;-1.314;2023-05-10T15:23:42;26;26;
36453;PMS5003;22478;51.740;-1.314;2023-05-10T15:26:10;30;30;
36453;PMS5003;22478;51.740;-1.314;2023-05-10T15:28:37;34;34;
36453;PMS5003;22478;51.740;-1.314;2023-05-10T15:31:04;26;26;
36453;PMS5003;22478;51.740;-1.314;2023-05-10T15:33:32;41;39;
36453;PMS5003;22478;51.740;-1.314;2023-05-10T15:35:59;16;14;
36453;PMS5003;22478;51.740;-1.314;2023-05-10T15:38:26;9;8;
36453;PMS5003;22478;51.740;-1.314;2023-05-10T15:40:55;10;10;
36453;PMS5003;22478;51.740;-1.314;2023-05-10T15:43:23;10;8;
36453;PMS5003;22478;51.740;-1.314;2023-05-10T15:45:50;8;6;
36453;PMS5003;22478;51.740;-1.314;2023-05-10T15:48:17;6;6;
36453;PMS5003;22478;51.740;-1.314;2023-05-10T15:50:44;11;7;
36453;PMS5003;22478;51.740;-1.314;2023-05-10T15:53:11;6;6;
36453;PMS5003;22478;51.740;-1.314;2023-05-10T15:55:38;9;8;
36453;PMS5003;22478;51.740;-1.314;2023-05-10T15:58:05;9;9;
36453;PMS5003;22478;51.740;-1.314;2023-05-10T16:00:32;8;8;
36453;PMS5003;22478;51.740;-1.314;2023-05-10T16:03:00;8;8;
36453;PMS5003;22478;51.740;-1.314;2023-05-10T16:05:27;16;9;
36453;PMS5003;22478;51.740;-1.314;2023-05-10T16:07:55;5;5;
36453;PMS5003;22478;51.740;-1.314;2023-05-10T16:10:22;7;4;
36453;PMS5003;22478;51.740;-1.314;2023-05-10T16:12:50;6;6;
36453;PMS5003;22478;51.740;-1.314;2023-05-10T16:15:17;6;5;
36453;PMS5003;22478;51.740;-1.314;2023-05-10T16:17:49;6;4;